createdAt,value
2019-05-25T00:01:32.911Z,1.15
2019-05-25T00:04:01.104Z,1.00
2019-05-25T00:06:29.285Z,1.12
2019-05-25T00:08:57.380Z,1.10
2019-05-25T00:11:25.527Z,1.55
2019-05-25T00:13:53.687Z,1.95
2019-05-25T00:16:21.861Z,1.77
2019-05-25T00:18:50.037Z,1.12
2019-05-25T00:21:18.189Z,1.72
2019-05-25T00:23:46.344Z,1.25
2019-05-25T00:26:14.629Z,1.10
2019-05-25T00:28:42.722Z,1.25
2019-05-25T00:31:10.893Z,0.95
2019-05-25T00:33:38.975Z,1.60
2019-05-25T00:36:07.231Z,1.30
2019-05-25T00:38:35.525Z,0.93
2019-05-25T00:41:03.637Z,1.50
2019-05-25T00:43:31.824Z,2.10
2019-05-25T00:46:00.047Z,1.45
2019-05-25T00:48:28.201Z,1.65
2019-05-25T00:50:56.310Z,1.90
2019-05-25T00:53:24.454Z,2.15
2019-05-25T00:55:52.542Z,2.33
2019-05-25T00:58:20.692Z,1.90
2019-05-25T01:00:48.995Z,1.67
2019-05-25T01:03:17.140Z,2.27
2019-05-25T01:05:45.295Z,1.85
2019-05-25T01:08:13.528Z,2.17
2019-05-25T01:10:41.695Z,2.08
2019-05-25T01:13:09.821Z,1.57
2019-05-25T01:15:38.061Z,2.10
2019-05-25T01:18:06.287Z,1.42
2019-05-25T01:20:34.410Z,2.00
2019-05-25T01:23:02.557Z,1.57
2019-05-25T01:25:30.694Z,1.55
2019-05-25T01:27:58.801Z,1.40
2019-05-25T01:30:26.940Z,1.55
2019-05-25T01:32:55.357Z,1.82
2019-05-25T01:35:23.463Z,1.70
2019-05-25T01:37:51.646Z,1.70
2019-05-25T01:40:20.177Z,1.90
2019-05-25T01:42:48.358Z,2.45
2019-05-25T01:45:16.639Z,2.00
2019-05-25T01:47:44.849Z,2.50
2019-05-25T01:50:13.170Z,1.92
2019-05-25T01:52:41.323Z,1.82
2019-05-25T01:55:09.919Z,1.92
2019-05-25T01:57:38.061Z,1.67
2019-05-25T02:00:08.938Z,1.70
2019-05-25T02:02:37.023Z,1.72
2019-05-25T02:05:06.025Z,1.40
2019-05-25T02:07:34.247Z,1.42
2019-05-25T02:10:02.380Z,1.40
2019-05-25T02:12:30.580Z,1.70
2019-05-25T02:14:58.852Z,1.72
2019-05-25T02:17:26.953Z,1.60
2019-05-25T02:19:55.080Z,1.50
2019-05-25T02:22:23.272Z,1.47
2019-05-25T02:24:51.448Z,1.32
2019-05-25T02:27:19.630Z,1.50
2019-05-25T02:29:47.760Z,1.47
2019-05-25T02:32:15.923Z,1.67
2019-05-25T02:34:44.122Z,1.98
2019-05-25T02:37:12.374Z,1.62
2019-05-25T02:39:40.644Z,1.62
2019-05-25T02:42:09.077Z,1.30
2019-05-25T02:44:37.219Z,1.52
2019-05-25T02:47:05.563Z,1.70
2019-05-25T02:49:33.756Z,1.60
2019-05-25T02:52:01.924Z,1.40
2019-05-25T02:54:30.122Z,1.80
2019-05-25T02:56:58.272Z,1.87
2019-05-25T02:59:26.374Z,2.10
2019-05-25T03:01:54.542Z,1.70
2019-05-25T03:04:22.678Z,1.92
2019-05-25T03:06:52.596Z,1.90
2019-05-25T03:09:21.716Z,1.80
2019-05-25T03:11:51.027Z,1.72
2019-05-25T03:14:19.372Z,2.00
2019-05-25T03:16:47.501Z,1.50
2019-05-25T03:19:15.640Z,1.32
2019-05-25T03:21:43.859Z,1.65
2019-05-25T03:24:11.990Z,1.90
2019-05-25T03:26:40.118Z,1.42
2019-05-25T03:29:08.290Z,2.02
2019-05-25T03:31:36.441Z,2.25
2019-05-25T03:34:04.617Z,2.30
2019-05-25T03:36:32.988Z,2.12
2019-05-25T03:39:02.043Z,2.87
2019-05-25T03:41:30.177Z,2.85
2019-05-25T03:43:58.387Z,2.22
2019-05-25T03:46:26.578Z,2.35
2019-05-25T03:48:54.665Z,2.50
2019-05-25T03:51:22.836Z,3.10
2019-05-25T03:53:50.950Z,2.70
2019-05-25T03:56:19.098Z,2.42
2019-05-25T03:58:47.219Z,2.52
2019-05-25T04:01:15.368Z,2.20
2019-05-25T04:03:43.661Z,2.00
2019-05-25T04:06:11.843Z,2.70
2019-05-25T04:08:40.019Z,3.30
2019-05-25T04:11:08.168Z,2.58
2019-05-25T04:13:36.439Z,2.80
2019-05-25T04:16:04.643Z,3.08
2019-05-25T04:18:32.779Z,3.30
2019-05-25T04:21:00.965Z,3.42
2019-05-25T04:23:29.101Z,3.00
2019-05-25T04:25:57.233Z,3.12
2019-05-25T04:28:25.429Z,3.12
2019-05-25T04:30:53.534Z,2.70
2019-05-25T04:33:21.673Z,2.92
2019-05-25T04:35:49.888Z,3.05
2019-05-25T04:38:17.986Z,2.45
2019-05-25T04:40:46.168Z,2.80
2019-05-25T04:43:14.478Z,2.67
2019-05-25T04:45:42.571Z,2.40
2019-05-25T04:48:10.819Z,3.17
2019-05-25T04:50:39.051Z,3.20
2019-05-25T04:53:07.209Z,2.87
2019-05-25T04:55:35.647Z,3.47
2019-05-25T04:58:03.887Z,2.62
2019-05-25T05:00:32.079Z,2.58
2019-05-25T05:05:35.690Z,3.27
2019-05-25T05:08:03.930Z,2.85
2019-05-25T05:10:32.004Z,2.80
2019-05-25T05:13:00.131Z,3.20
2019-05-25T05:15:28.247Z,3.30
2019-05-25T05:17:56.476Z,3.27
2019-05-25T05:20:24.670Z,2.65
2019-05-25T05:22:52.822Z,2.42
2019-05-25T05:25:20.941Z,2.62
2019-05-25T05:27:49.171Z,3.27
2019-05-25T05:30:18.718Z,3.37
2019-05-25T05:32:46.892Z,2.97
2019-05-25T05:35:15.162Z,2.27
2019-05-25T05:38:03.803Z,2.85
2019-05-25T05:40:33.137Z,2.20
2019-05-25T05:43:02.920Z,2.80
2019-05-25T05:45:52.879Z,2.83
2019-05-25T05:48:23.899Z,2.10
2019-05-25T05:50:56.877Z,1.62
2019-05-25T05:53:26.465Z,2.30
2019-05-25T05:55:54.602Z,2.40
2019-05-25T05:58:22.724Z,1.45
2019-05-25T06:00:50.909Z,2.25
2019-05-25T06:03:19.121Z,2.08
2019-05-25T06:05:47.298Z,2.50
2019-05-25T06:08:15.555Z,1.87
2019-05-25T06:10:43.830Z,2.50
2019-05-25T06:13:12.022Z,1.37
2019-05-25T06:15:40.184Z,1.60
2019-05-25T06:18:08.307Z,1.37
2019-05-25T06:20:36.422Z,1.65
2019-05-25T06:23:08.447Z,1.30
2019-05-25T06:25:34.539Z,1.60
2019-05-25T06:28:02.621Z,1.55
2019-05-25T06:30:30.830Z,1.47
2019-05-25T06:32:58.976Z,1.62
2019-05-25T06:35:27.090Z,1.30
2019-05-25T06:37:55.218Z,1.60
2019-05-25T06:40:23.340Z,1.12
2019-05-25T06:42:51.569Z,1.25
2019-05-25T06:45:19.853Z,1.37
2019-05-25T06:47:48.164Z,1.85
2019-05-25T06:50:16.496Z,1.55
2019-05-25T06:52:44.722Z,1.15
2019-05-25T06:55:13.066Z,1.40
2019-05-25T06:57:43.503Z,1.25
2019-05-25T07:00:11.672Z,1.40
2019-05-25T07:02:39.775Z,1.10
2019-05-25T07:05:08.151Z,1.30
2019-05-25T07:07:36.283Z,1.20
2019-05-25T07:10:04.874Z,1.37
2019-05-25T07:12:33.147Z,1.27
2019-05-25T07:15:01.281Z,1.50
2019-05-25T07:17:29.424Z,0.98
2019-05-25T07:19:57.604Z,1.50
2019-05-25T07:22:25.732Z,1.65
2019-05-25T07:24:53.870Z,1.77
2019-05-25T07:27:22.230Z,1.60
2019-05-25T07:29:50.342Z,1.50
2019-05-25T07:32:18.475Z,1.62
2019-05-25T07:34:46.585Z,1.25
2019-05-25T07:37:14.758Z,1.07
2019-05-25T07:39:43.037Z,1.57
2019-05-25T07:42:11.143Z,1.90
2019-05-25T07:44:39.316Z,1.50
2019-05-25T07:47:07.424Z,1.77
2019-05-25T07:49:35.544Z,1.30
2019-05-25T07:52:03.752Z,1.77
2019-05-25T07:54:32.083Z,1.75
2019-05-25T07:57:00.318Z,1.70
2019-05-25T07:59:28.615Z,1.15
2019-05-25T08:01:56.745Z,1.50
2019-05-25T08:04:24.906Z,0.98
2019-05-25T08:06:53.037Z,1.25
2019-05-25T08:09:21.227Z,1.12
2019-05-25T08:11:49.377Z,1.15
2019-05-25T08:14:17.569Z,1.02
2019-05-25T08:16:45.685Z,1.15
2019-05-25T08:19:13.799Z,1.60
2019-05-25T08:21:41.917Z,1.20
2019-05-25T08:24:10.051Z,0.90
2019-05-25T08:26:38.207Z,1.12
2019-05-25T08:29:06.360Z,0.85
2019-05-25T08:31:34.531Z,0.85
2019-05-25T08:34:04.503Z,0.90
2019-05-25T08:36:32.745Z,1.20
2019-05-25T08:39:00.978Z,1.30
2019-05-25T08:41:29.110Z,0.80
2019-05-25T08:43:57.289Z,1.05
2019-05-25T08:46:25.595Z,0.85
2019-05-25T08:48:53.937Z,1.27
2019-05-25T08:51:22.058Z,0.93
2019-05-25T08:53:50.275Z,1.07
2019-05-25T08:56:18.507Z,0.93
2019-05-25T08:58:48.663Z,1.07
2019-05-25T09:01:16.553Z,1.00
2019-05-25T09:03:44.745Z,1.40
2019-05-25T09:06:12.941Z,1.07
2019-05-25T09:08:41.134Z,1.17
2019-05-25T09:11:09.356Z,1.05
2019-05-25T09:13:56.627Z,1.30
2019-05-25T09:16:24.816Z,1.30
2019-05-25T09:18:53.330Z,1.60
2019-05-25T09:21:21.489Z,1.85
2019-05-25T09:23:49.658Z,1.27
2019-05-25T09:26:17.881Z,1.60
2019-05-25T09:28:46.080Z,1.80
2019-05-25T09:31:14.420Z,2.05
2019-05-25T09:33:42.525Z,1.82
2019-05-25T09:36:10.693Z,1.67
2019-05-25T09:38:38.897Z,1.27
2019-05-25T09:41:07.022Z,1.60
2019-05-25T09:43:35.140Z,1.62
2019-05-25T09:46:03.481Z,1.70
2019-05-25T09:48:31.703Z,1.65
2019-05-25T09:50:59.857Z,1.70
2019-05-25T09:53:28.087Z,2.00
2019-05-25T09:55:56.212Z,1.95
2019-05-25T09:58:24.358Z,2.33
2019-05-25T10:00:52.517Z,2.20
2019-05-25T10:03:20.679Z,2.00
2019-05-25T10:05:48.907Z,2.17
2019-05-25T10:08:17.510Z,2.02
2019-05-25T10:10:45.622Z,2.50
2019-05-25T10:13:13.802Z,2.20
2019-05-25T10:15:41.934Z,2.05
2019-05-25T10:18:10.062Z,2.10
2019-05-25T10:20:38.238Z,2.15
2019-05-25T10:23:06.408Z,1.77
2019-05-25T10:25:34.597Z,1.42
2019-05-25T10:28:02.756Z,1.57
2019-05-25T10:30:30.916Z,1.50
2019-05-25T10:32:59.058Z,1.60
2019-05-25T10:35:27.252Z,1.42
2019-05-25T10:37:55.417Z,1.20
2019-05-25T10:40:23.748Z,1.42
2019-05-25T10:42:51.915Z,1.85
2019-05-25T10:45:20.284Z,1.57
2019-05-25T10:47:48.499Z,1.85
2019-05-25T10:50:16.966Z,1.80
2019-05-25T10:52:45.256Z,2.10
2019-05-25T10:55:14.050Z,1.77
2019-05-25T10:57:42.284Z,2.10
2019-05-25T11:00:11.674Z,1.70
2019-05-25T11:02:39.826Z,2.00
2019-05-25T11:05:09.451Z,1.35
2019-05-25T11:07:37.737Z,2.15
2019-05-25T11:10:06.282Z,1.80
2019-05-25T11:12:34.722Z,2.70
2019-05-25T11:15:02.987Z,2.02
2019-05-25T11:17:31.240Z,2.37
2019-05-25T11:19:59.419Z,2.10
2019-05-25T11:22:27.566Z,2.05
2019-05-25T11:24:55.778Z,2.42
2019-05-25T11:27:23.946Z,2.20
2019-05-25T11:30:07.573Z,1.95
2019-05-25T11:32:22.142Z,1.87
2019-05-25T11:34:50.363Z,2.20
2019-05-25T11:37:18.459Z,2.15
2019-05-25T11:39:46.612Z,1.67
2019-05-25T11:42:14.817Z,1.62
2019-05-25T11:44:42.939Z,1.85
2019-05-25T11:47:11.157Z,1.92
2019-05-25T11:49:39.333Z,2.47
2019-05-25T11:52:07.444Z,2.65
2019-05-25T11:54:35.715Z,1.30
2019-05-25T11:57:03.864Z,2.00
2019-05-25T11:59:32.046Z,1.98
2019-05-25T12:02:00.302Z,2.08
2019-05-25T12:04:28.393Z,1.77
2019-05-25T12:06:56.571Z,1.72
2019-05-25T12:09:24.827Z,1.35
2019-05-25T12:11:53.097Z,1.75
2019-05-25T12:14:21.271Z,1.52
2019-05-25T12:16:49.589Z,1.47
2019-05-25T12:19:17.905Z,1.45
2019-05-25T12:21:46.008Z,1.95
2019-05-25T12:24:14.221Z,1.90
2019-05-25T12:26:42.383Z,2.25
2019-05-25T12:29:10.574Z,1.25
2019-05-25T12:31:38.788Z,1.87
2019-05-25T12:34:07.029Z,1.72
2019-05-25T12:36:35.213Z,1.32
2019-05-25T12:39:04.186Z,1.40
2019-05-25T12:41:32.440Z,1.92
2019-05-25T12:44:00.747Z,1.60
2019-05-25T12:46:29.089Z,1.57
2019-05-25T12:48:57.337Z,1.60
2019-05-25T12:51:25.589Z,1.75
2019-05-25T12:53:53.729Z,1.95
2019-05-25T12:56:22.184Z,1.62
2019-05-25T12:58:50.433Z,1.30
2019-05-25T13:01:18.678Z,1.70
2019-05-25T13:03:47.093Z,1.10
2019-05-25T13:06:18.195Z,1.20
2019-05-25T13:11:12.585Z,1.20
2019-05-25T13:13:40.732Z,0.88
2019-05-25T13:16:09.043Z,1.37
2019-05-25T13:18:37.273Z,1.72
2019-05-25T13:21:05.686Z,1.40
2019-05-25T13:23:33.869Z,1.60
2019-05-25T13:26:02.056Z,1.30
2019-05-25T13:28:30.228Z,1.60
2019-05-25T13:31:10.822Z,1.47
2019-05-25T13:33:28.358Z,1.45
2019-05-25T13:35:56.498Z,1.85
2019-05-25T13:38:24.686Z,1.47
2019-05-25T13:40:52.898Z,1.67
2019-05-25T13:43:21.159Z,1.75
2019-05-25T13:45:49.388Z,1.60
2019-05-25T13:48:17.545Z,1.62
2019-05-25T13:50:45.964Z,1.72
2019-05-25T13:53:14.080Z,1.90
2019-05-25T13:55:42.333Z,1.62
2019-05-25T13:58:10.480Z,1.82
2019-05-25T14:00:38.693Z,1.75
2019-05-25T14:03:06.942Z,1.37
2019-05-25T14:05:35.153Z,1.95
2019-05-25T14:08:03.351Z,1.85
2019-05-25T14:10:31.564Z,1.55
2019-05-25T14:13:01.830Z,1.40
2019-05-25T14:15:29.673Z,1.60
2019-05-25T14:17:58.279Z,1.57
2019-05-25T14:20:27.088Z,1.32
2019-05-25T14:22:55.290Z,1.30
2019-05-25T14:25:23.505Z,1.52
2019-05-25T14:27:51.685Z,1.55
2019-05-25T14:30:19.900Z,1.47
2019-05-25T14:32:48.036Z,0.98
2019-05-25T14:35:16.205Z,1.30
2019-05-25T14:37:44.564Z,1.57
2019-05-25T14:40:13.766Z,1.72
2019-05-25T14:42:41.928Z,1.65
2019-05-25T14:45:10.757Z,1.80
2019-05-25T14:47:39.017Z,1.57
2019-05-25T14:50:07.681Z,1.80
2019-05-25T14:52:35.945Z,1.57
2019-05-25T14:55:04.354Z,1.25
2019-05-25T14:57:32.601Z,1.70
2019-05-25T15:00:00.890Z,1.40
2019-05-25T15:02:29.095Z,1.32
2019-05-25T15:04:57.215Z,0.90
2019-05-25T15:07:25.450Z,1.12
2019-05-25T15:09:53.643Z,1.12
2019-05-25T15:12:21.970Z,1.72
2019-05-25T15:14:50.137Z,1.17
2019-05-25T15:17:18.401Z,0.90
2019-05-25T15:19:46.555Z,1.30
2019-05-25T15:22:14.900Z,1.25
2019-05-25T15:24:43.183Z,1.40
2019-05-25T15:27:11.480Z,1.30
2019-05-25T15:29:39.717Z,1.07
2019-05-25T15:32:19.466Z,0.93
2019-05-25T15:34:37.964Z,1.00
2019-05-25T15:37:06.352Z,1.52
2019-05-25T15:39:34.524Z,1.22
2019-05-25T15:42:02.671Z,1.00
2019-05-25T15:44:30.959Z,1.62
2019-05-25T15:46:59.308Z,0.72
2019-05-25T15:49:33.472Z,0.88
2019-05-25T15:51:57.472Z,1.10
2019-05-25T15:54:25.626Z,1.32
2019-05-25T15:56:53.829Z,1.32
2019-05-25T15:59:23.623Z,1.10
2019-05-25T16:01:52.028Z,0.88
2019-05-25T16:04:20.356Z,0.88
2019-05-25T16:06:50.616Z,0.90
2019-05-25T16:09:18.892Z,0.90
2019-05-25T16:11:47.196Z,0.50
2019-05-25T16:14:15.391Z,0.70
2019-05-25T16:16:43.595Z,0.80
2019-05-25T16:19:11.768Z,0.72
2019-05-25T16:21:39.953Z,0.30
2019-05-25T16:24:08.404Z,0.72
2019-05-25T16:26:45.661Z,0.70
2019-05-25T16:31:33.729Z,0.60
2019-05-25T16:34:01.864Z,1.02
2019-05-25T16:36:30.128Z,0.60
2019-05-25T16:38:58.470Z,0.40
2019-05-25T16:41:26.669Z,0.85
2019-05-25T16:43:54.925Z,0.78
2019-05-25T16:46:23.127Z,0.60
2019-05-25T16:48:51.383Z,0.60
2019-05-25T16:51:19.606Z,0.90
2019-05-25T16:53:47.751Z,0.78
2019-05-25T16:56:15.954Z,0.75
2019-05-25T16:58:44.191Z,1.07
2019-05-25T17:01:12.457Z,0.68
2019-05-25T17:03:40.638Z,0.70
2019-05-25T17:06:08.765Z,0.60
2019-05-25T17:08:36.970Z,0.53
2019-05-25T17:11:05.248Z,0.50
2019-05-25T17:13:33.523Z,0.90
2019-05-25T17:16:01.694Z,0.50
2019-05-25T17:18:29.970Z,0.68
2019-05-25T17:20:58.167Z,0.95
2019-05-25T17:23:26.498Z,0.35
2019-05-25T17:25:54.740Z,0.50
2019-05-25T17:28:22.937Z,0.50
2019-05-25T17:30:51.136Z,0.50
2019-05-25T17:33:19.330Z,0.50
2019-05-25T17:35:47.872Z,1.80
2019-05-25T17:38:16.121Z,0.70
2019-05-25T17:40:44.360Z,0.65
2019-05-25T17:43:12.573Z,0.40
2019-05-25T17:45:40.719Z,0.60
2019-05-25T17:48:08.968Z,0.60
2019-05-25T17:50:37.334Z,0.53
2019-05-25T17:53:05.648Z,0.50
2019-05-25T17:55:33.844Z,0.80
2019-05-25T17:58:02.349Z,0.60
2019-05-25T18:00:39.297Z,0.50
2019-05-25T18:03:07.502Z,0.62
2019-05-25T18:05:35.766Z,0.30
2019-05-25T18:08:04.288Z,0.60
2019-05-25T18:10:32.538Z,0.75
2019-05-25T18:13:01.936Z,0.50
2019-05-25T18:15:30.098Z,0.70
2019-05-25T18:17:58.395Z,0.60
2019-05-25T18:20:26.558Z,0.62
2019-05-25T18:22:54.826Z,0.80
2019-05-25T18:25:22.956Z,0.57
2019-05-25T18:27:51.319Z,0.55
2019-05-25T18:30:20.556Z,0.60
2019-05-25T18:32:48.950Z,0.40
2019-05-25T18:35:17.324Z,0.70
2019-05-25T18:37:45.530Z,0.33
2019-05-25T18:40:13.974Z,0.47
2019-05-25T18:42:42.161Z,0.53
2019-05-25T18:45:10.341Z,0.60
2019-05-25T18:47:38.542Z,0.50
2019-05-25T18:50:07.330Z,0.90
2019-05-25T18:52:35.669Z,0.60
2019-05-25T18:55:04.027Z,0.53
2019-05-25T18:57:32.262Z,0.57
2019-05-25T19:00:00.524Z,0.42
2019-05-25T19:02:28.852Z,0.65
2019-05-25T19:04:59.804Z,0.50
2019-05-25T19:09:54.320Z,0.55
2019-05-25T19:12:22.511Z,0.70
2019-05-25T19:14:50.737Z,0.60
2019-05-25T19:17:18.952Z,0.60
2019-05-25T19:19:47.208Z,0.50
2019-05-25T19:22:15.465Z,0.70
2019-05-25T19:24:43.663Z,0.57
2019-05-25T19:27:12.067Z,0.50
2019-05-25T19:29:40.331Z,0.40
2019-05-25T19:32:08.586Z,0.60
2019-05-25T19:34:36.757Z,0.30
2019-05-25T19:37:04.967Z,0.35
2019-05-25T19:39:33.158Z,0.35
2019-05-25T19:42:01.341Z,0.47
2019-05-25T19:44:29.530Z,0.50
2019-05-25T19:46:57.804Z,0.40
2019-05-25T19:49:26.163Z,0.50
2019-05-25T19:51:54.309Z,0.60
2019-05-25T19:54:22.561Z,0.75
2019-05-25T19:56:50.831Z,1.00
2019-05-25T19:59:19.334Z,1.00
2019-05-25T20:01:47.521Z,0.80
2019-05-25T20:04:15.794Z,0.90
2019-05-25T20:06:43.939Z,0.82
2019-05-25T20:09:12.122Z,0.55
2019-05-25T20:11:40.309Z,0.53
2019-05-25T20:14:08.585Z,0.82
2019-05-25T20:16:36.939Z,0.65
2019-05-25T20:19:05.277Z,0.60
2019-05-25T20:21:33.538Z,0.50
2019-05-25T20:24:01.690Z,0.45
2019-05-25T20:26:29.856Z,0.42
2019-05-25T20:28:58.053Z,0.70
2019-05-25T20:31:26.751Z,0.78
2019-05-25T20:33:54.912Z,1.00
2019-05-25T20:36:23.133Z,0.70
2019-05-25T20:38:51.371Z,1.07
2019-05-25T20:41:19.628Z,0.53
2019-05-25T20:43:47.819Z,0.62
2019-05-25T20:46:15.996Z,0.50
2019-05-25T20:48:44.214Z,0.82
2019-05-25T20:51:12.332Z,0.75
2019-05-25T20:53:40.540Z,0.82
2019-05-25T20:56:08.731Z,1.32
2019-05-25T20:58:39.122Z,2.92
2019-05-25T21:01:06.772Z,2.20
2019-05-25T21:03:34.953Z,2.10
2019-05-25T21:06:03.180Z,1.87
2019-05-25T21:08:31.356Z,1.10
2019-05-25T21:10:59.608Z,1.25
2019-05-25T21:13:27.823Z,0.80
2019-05-25T21:15:56.348Z,0.60
2019-05-25T21:18:24.494Z,0.82
2019-05-25T21:20:52.716Z,0.98
2019-05-25T21:23:20.894Z,1.60
2019-05-25T21:25:49.097Z,0.90
2019-05-25T21:28:17.353Z,2.50
2019-05-25T21:30:45.544Z,1.42
2019-05-25T21:33:13.763Z,1.27
2019-05-25T21:35:41.978Z,0.88
2019-05-25T21:38:10.159Z,1.02
2019-05-25T21:40:38.373Z,0.82
2019-05-25T21:43:06.571Z,0.80
2019-05-25T21:45:34.805Z,0.70
2019-05-25T21:48:02.985Z,0.75
2019-05-25T21:50:31.272Z,0.60
2019-05-25T21:53:01.635Z,1.00
2019-05-25T21:55:29.522Z,0.75
2019-05-25T21:57:57.706Z,0.72
2019-05-25T22:00:28.122Z,0.98
2019-05-25T22:03:02.132Z,1.75
2019-05-25T22:05:31.055Z,1.02
2019-05-25T22:07:59.311Z,0.80
2019-05-25T22:10:27.420Z,0.85
2019-05-25T22:12:55.606Z,0.93
2019-05-25T22:15:23.742Z,1.00
2019-05-25T22:17:52.198Z,0.88
2019-05-25T22:20:20.987Z,1.20
2019-05-25T22:22:49.179Z,1.10
2019-05-25T22:25:17.438Z,0.60
2019-05-25T22:27:45.726Z,0.90
2019-05-25T22:30:14.343Z,0.65
2019-05-25T22:32:43.256Z,0.88
2019-05-25T22:35:11.734Z,0.70
2019-05-25T22:37:39.890Z,0.85
2019-05-25T22:40:08.353Z,0.72
2019-05-25T22:42:36.502Z,1.00
2019-05-25T22:45:05.105Z,2.50
2019-05-25T22:47:33.297Z,2.25
2019-05-25T22:50:01.398Z,1.37
2019-05-25T22:52:29.618Z,1.00
2019-05-25T22:54:57.730Z,0.85
2019-05-25T22:57:25.835Z,0.90
2019-05-25T22:59:54.020Z,0.78
2019-05-25T23:02:22.156Z,0.90
2019-05-25T23:04:50.294Z,0.80
2019-05-25T23:07:18.422Z,0.90
2019-05-25T23:09:46.565Z,1.20
2019-05-25T23:12:16.468Z,1.72
2019-05-25T23:14:44.647Z,1.30
2019-05-25T23:17:12.887Z,1.65
2019-05-25T23:19:40.994Z,1.57
2019-05-25T23:22:09.165Z,1.17
2019-05-25T23:24:37.413Z,1.70
2019-05-25T23:27:05.543Z,1.10
2019-05-25T23:29:33.653Z,1.07
2019-05-25T23:32:01.837Z,1.10
2019-05-25T23:34:30.568Z,1.40
2019-05-25T23:37:13.563Z,1.22
2019-05-25T23:39:29.051Z,2.75
2019-05-25T23:41:57.691Z,2.50
2019-05-25T23:44:26.139Z,2.95
2019-05-25T23:46:54.938Z,1.65
2019-05-25T23:49:23.078Z,1.80
2019-05-25T23:51:51.499Z,3.47
2019-05-25T23:54:19.883Z,3.27
2019-05-25T23:56:48.086Z,2.30
2019-05-25T23:59:16.327Z,1.62
